Aspen-Pitkin Co/Sardy Field
KASE : now visible

Airfield :











YOU CAN JOIN US ON...

 
LOGIN :

Register | Disclaimer

   EN    FR    IT 

 









Legend :    VFR   Marginal VFR   IFR   Intensive IFR   Very Intensive IFR
Visi :
Ceiling :
>= 8 km
>= 3000ft
5 to 8 km
1000 to 3000 ft
1500m to 5 km
500 to 1000 ft
800 to 1500m
200 to 500 ft
< 800m
< 200 ft
Symbols :   Thunderstorms  Fog  Heavy snow  Heavy precipitations  Wind > 20 kt






- Airport Elevation : 7820 ft


KASE - Aspen-Pitkin Co/Sardy Field

CURRENT METAR :
  • 172153Z 33007KT 10SM CLR 02/M09 A2986 RMK AO2 SLP079 T00171089

EXPIRED METARs :
  • 172053Z 32009G15KT 10SM FEW038 BKN070 01/M08 A2988 RMK AO2 SLP088 T00111083 56018
  • 171953Z 01007KT 10SM BKN030 01/M07 A2989 RMK AO2 SLP091 T00061067

TAF KASE
Valid from the 17 at 21:00 until the 18 at 18:00 UTC


172105Z 1721/1818 34008KT P6SM SCT040 BKN070
FM172300 34008KT P6SM VCSH FEW040 SCT060
FM180400 VRB04KT P6SM VCSH SCT030 BKN050
FM180600 VRB03KT P6SM VCSH SCT028 BKN040
FM181000 24003KT P6SM FEW035 SCT050



MET'MAP, your aeronautical weather chart ! - Copyright ORBIFLY December 2007 - Disclaimer

ORBIFLY MET'MAP TEAM :

Programming & Development : Alexandra Zaïnal
Concept & original design : Baudouin d'Aumeries
Assistance for programming : Marc-Olivier Méhu
Technical & hardware support : Manuel Goepfert

Contact : metmap@orbifly.com




SOURCES & CREDITS :

   NOAA       Earth
Advisory